createdAt,value
2019-04-28T00:00:45.422Z,5.90
2019-04-28T00:03:15.020Z,5.90
2019-04-28T00:05:44.410Z,5.90
2019-04-28T00:08:13.910Z,5.90
2019-04-28T00:10:43.434Z,5.80
2019-04-28T00:13:13.000Z,5.90
2019-04-28T00:15:42.393Z,5.90
2019-04-28T00:18:12.070Z,5.90
2019-04-28T00:20:45.506Z,5.90
2019-04-28T00:23:25.281Z,5.90
2019-04-28T00:26:14.314Z,5.90
2019-04-28T00:28:43.695Z,5.90
2019-04-28T00:31:13.081Z,5.80
2019-04-28T00:33:43.540Z,5.80
2019-04-28T00:36:13.699Z,5.80
2019-04-28T00:38:43.140Z,5.80
2019-04-28T00:41:12.520Z,5.80
2019-04-28T00:43:41.901Z,5.80
2019-04-28T00:46:12.519Z,5.80
2019-04-28T00:48:41.985Z,5.80
2019-04-28T00:51:11.638Z,5.80
2019-04-28T00:53:41.247Z,5.80
2019-04-28T00:56:12.074Z,5.80
2019-04-28T00:58:41.798Z,5.80
2019-04-28T01:01:24.854Z,5.80
2019-04-28T01:03:54.297Z,5.80
2019-04-28T01:06:23.697Z,5.80
2019-04-28T01:08:53.198Z,5.80
2019-04-28T01:11:22.713Z,5.80
2019-04-28T01:13:52.223Z,5.80
2019-04-28T01:16:30.201Z,5.80
2019-04-28T01:19:01.252Z,5.80
2019-04-28T01:21:32.445Z,5.80
2019-04-28T01:24:01.852Z,5.80
2019-04-28T01:26:31.394Z,5.90
2019-04-28T01:29:00.806Z,5.80
2019-04-28T01:31:39.648Z,5.80
2019-04-28T01:34:20.542Z,5.80
2019-04-28T01:36:51.677Z,5.80
2019-04-28T01:39:21.521Z,5.80
2019-04-28T01:41:50.984Z,5.80
2019-04-28T01:44:20.466Z,5.80
2019-04-28T01:46:49.909Z,5.80
2019-04-28T01:49:19.698Z,5.80
2019-04-28T01:52:00.853Z,5.80
2019-04-28T01:54:30.667Z,5.70
2019-04-28T01:57:01.435Z,5.70
2019-04-28T01:59:31.182Z,5.70
2019-04-28T02:02:00.723Z,5.70
2019-04-28T02:04:32.548Z,5.70
2019-04-28T02:07:01.421Z,5.70
2019-04-28T02:09:30.836Z,5.60
2019-04-28T02:12:00.827Z,5.60
2019-04-28T02:14:30.917Z,5.60
2019-04-28T02:17:00.693Z,5.60
2019-04-28T02:19:30.601Z,5.60
2019-04-28T02:22:21.138Z,5.60
2019-04-28T02:24:50.653Z,5.60
2019-04-28T02:27:20.475Z,5.50
2019-04-28T02:29:50.094Z,5.50
2019-04-28T02:32:23.853Z,5.50
2019-04-28T02:34:50.981Z,5.50
2019-04-28T02:37:20.763Z,5.50
2019-04-28T02:39:50.648Z,5.50
2019-04-28T02:42:21.007Z,5.40
2019-04-28T02:44:52.285Z,5.40
2019-04-28T02:47:22.146Z,5.40
2019-04-28T02:49:53.182Z,5.40
2019-04-28T02:52:30.991Z,5.40
2019-04-28T02:55:03.256Z,5.40
2019-04-28T02:57:32.891Z,5.40
2019-04-28T03:00:02.379Z,5.40
2019-04-28T03:02:32.177Z,5.40
2019-04-28T03:05:01.636Z,5.40
2019-04-28T03:07:31.449Z,5.40
2019-04-28T03:10:03.786Z,5.40
2019-04-28T03:12:32.409Z,5.40
2019-04-28T03:15:01.891Z,5.40
2019-04-28T03:17:31.512Z,5.40
2019-04-28T03:20:01.466Z,5.30
2019-04-28T03:22:33.614Z,5.30
2019-04-28T03:25:03.840Z,5.40
2019-04-28T03:27:34.991Z,5.40
2019-04-28T03:30:13.270Z,5.40
2019-04-28T03:32:53.550Z,5.40
2019-04-28T03:35:22.476Z,5.40
2019-04-28T03:37:51.277Z,5.40
2019-04-28T03:40:21.226Z,5.40
2019-04-28T03:42:51.425Z,5.40
2019-04-28T03:45:22.564Z,5.40
2019-04-28T03:47:51.945Z,5.40
2019-04-28T03:50:21.466Z,5.40
2019-04-28T03:52:51.271Z,5.40
2019-04-28T03:55:21.360Z,5.30
2019-04-28T03:57:51.102Z,5.30
2019-04-28T04:00:22.034Z,5.30
2019-04-28T04:02:51.821Z,5.30
2019-04-28T04:05:21.205Z,5.30
2019-04-28T04:07:50.839Z,5.40
2019-04-28T04:10:32.682Z,5.40
2019-04-28T04:13:15.658Z,5.40
2019-04-28T04:16:02.862Z,5.40
2019-04-28T04:18:33.919Z,5.40
2019-04-28T04:21:03.358Z,5.50
2019-04-28T04:23:32.851Z,5.40
2019-04-28T04:26:02.359Z,5.40
2019-04-28T04:28:31.834Z,5.50
2019-04-28T04:31:03.160Z,5.40
2019-04-28T04:33:32.509Z,5.40
2019-04-28T04:36:02.029Z,5.40
2019-04-28T04:38:31.661Z,5.40
2019-04-28T04:41:01.733Z,5.50
2019-04-28T04:43:31.780Z,5.50
2019-04-28T04:46:15.023Z,5.40
2019-04-28T04:48:46.155Z,5.50
2019-04-28T04:51:15.745Z,5.50
2019-04-28T04:53:45.224Z,5.50
2019-04-28T04:56:14.640Z,5.50
2019-04-28T04:58:44.007Z,5.50
2019-04-28T05:01:20.268Z,5.50
2019-04-28T05:03:59.583Z,5.50
2019-04-28T05:06:41.186Z,5.50
2019-04-28T05:09:11.833Z,5.50
2019-04-28T05:11:41.345Z,5.50
2019-04-28T05:14:12.023Z,5.50
2019-04-28T05:16:41.753Z,5.50
2019-04-28T05:19:11.158Z,5.50
2019-04-28T05:21:40.644Z,5.50
2019-04-28T05:24:27.888Z,5.50
2019-04-28T05:26:57.315Z,5.50
2019-04-28T05:29:28.156Z,5.60
2019-04-28T05:31:59.745Z,5.60
2019-04-28T05:34:29.684Z,5.60
2019-04-28T05:37:00.683Z,5.60
2019-04-28T05:39:30.188Z,5.60
2019-04-28T05:42:00.849Z,5.60
2019-04-28T05:44:32.071Z,5.60
2019-04-28T05:47:01.764Z,5.60
2019-04-28T05:49:35.482Z,5.60
2019-04-28T05:52:11.880Z,5.60
2019-04-28T05:54:44.427Z,5.60
2019-04-28T05:57:21.082Z,5.60
2019-04-28T05:59:52.078Z,5.70
2019-04-28T06:02:30.548Z,5.70
2019-04-28T06:05:00.045Z,5.70
2019-04-28T06:07:31.144Z,5.70
2019-04-28T06:10:04.584Z,5.70
2019-04-28T06:12:33.994Z,5.80
2019-04-28T06:15:04.711Z,5.80
2019-04-28T06:17:34.102Z,5.80
2019-04-28T06:20:04.876Z,5.70
2019-04-28T06:22:34.628Z,5.80
2019-04-28T06:25:05.386Z,5.80
2019-04-28T06:27:34.859Z,5.90
2019-04-28T06:30:06.129Z,5.90
2019-04-28T06:32:36.331Z,5.90
2019-04-28T06:35:08.299Z,6.00
2019-04-28T06:37:37.694Z,6.00
2019-04-28T06:40:08.329Z,6.10
2019-04-28T06:42:37.795Z,6.10
2019-04-28T06:45:08.065Z,6.10
2019-04-28T06:47:37.495Z,6.20
2019-04-28T06:50:07.215Z,6.30
2019-04-28T06:52:36.696Z,6.30
2019-04-28T06:55:07.685Z,6.40
2019-04-28T06:57:37.078Z,6.50
2019-04-28T07:00:08.322Z,6.60
2019-04-28T07:02:37.750Z,6.70
2019-04-28T07:05:07.915Z,6.80
2019-04-28T07:07:37.333Z,6.80
2019-04-28T07:10:08.215Z,6.70
2019-04-28T07:12:37.574Z,6.60
2019-04-28T07:15:07.380Z,6.60
2019-04-28T07:17:36.823Z,6.60
2019-04-28T07:20:11.852Z,6.50
2019-04-28T07:22:41.344Z,6.50
2019-04-28T07:25:10.862Z,6.60
2019-04-28T07:27:40.236Z,6.70
2019-04-28T07:30:10.290Z,6.70
2019-04-28T07:32:39.745Z,6.80
2019-04-28T07:35:09.235Z,6.80
2019-04-28T07:37:38.619Z,6.90
2019-04-28T07:40:08.147Z,6.90
2019-04-28T07:42:37.540Z,6.80
2019-04-28T07:45:09.010Z,6.80
2019-04-28T07:47:38.465Z,6.90
2019-04-28T07:50:08.380Z,7.00
2019-04-28T07:52:54.462Z,7.00
2019-04-28T07:55:23.899Z,7.00
2019-04-28T07:57:53.347Z,7.00
2019-04-28T08:00:30.028Z,6.90
2019-04-28T08:02:59.542Z,7.00
2019-04-28T08:05:29.479Z,7.10
2019-04-28T08:07:58.959Z,7.20
2019-04-28T08:10:28.333Z,7.30
2019-04-28T08:12:57.687Z,7.40
2019-04-28T08:15:27.134Z,7.40
2019-04-28T08:17:56.512Z,7.60
2019-04-28T08:20:25.900Z,7.80
2019-04-28T08:22:56.271Z,7.90
2019-04-28T08:25:25.673Z,8.00
2019-04-28T08:27:55.051Z,8.10
2019-04-28T08:30:24.420Z,8.20
2019-04-28T08:32:57.884Z,8.30
2019-04-28T08:35:27.267Z,8.40
2019-04-28T08:37:56.653Z,8.40
2019-04-28T08:40:26.188Z,8.40
2019-04-28T08:42:55.543Z,8.40
2019-04-28T08:45:24.997Z,8.40
2019-04-28T08:47:54.377Z,8.30
2019-04-28T08:50:23.741Z,8.30
2019-04-28T08:52:53.173Z,8.40
2019-04-28T08:55:22.553Z,8.40
2019-04-28T08:57:51.954Z,8.50
2019-04-28T09:00:21.409Z,8.60
2019-04-28T09:02:50.766Z,8.60
2019-04-28T09:05:20.246Z,8.60
2019-04-28T09:07:49.622Z,8.50
2019-04-28T09:10:19.023Z,8.40
2019-04-28T09:12:48.434Z,8.40
2019-04-28T09:15:17.860Z,8.50
2019-04-28T09:17:47.249Z,8.60
2019-04-28T09:20:16.849Z,8.70
2019-04-28T09:22:46.215Z,8.90
2019-04-28T09:25:15.680Z,9.20
2019-04-28T09:27:45.148Z,9.20
2019-04-28T09:30:15.331Z,9.30
2019-04-28T09:32:44.800Z,9.30
2019-04-28T09:35:15.091Z,9.50
2019-04-28T09:37:44.784Z,9.50
2019-04-28T09:40:16.107Z,9.60
2019-04-28T09:42:47.509Z,9.90
2019-04-28T09:45:37.056Z,10.30
2019-04-28T09:48:06.823Z,10.30
2019-04-28T09:50:36.409Z,10.20
2019-04-28T09:53:06.099Z,10.20
2019-04-28T09:55:35.787Z,10.30
2019-04-28T09:58:05.154Z,10.20
2019-04-28T10:00:34.973Z,10.20
2019-04-28T10:03:04.372Z,10.10
2019-04-28T10:05:34.719Z,10.10
2019-04-28T10:08:04.292Z,10.40
2019-04-28T10:10:33.753Z,10.70
2019-04-28T10:13:03.238Z,11.30
2019-04-28T10:15:32.640Z,11.80
2019-04-28T10:18:02.086Z,12.00
2019-04-28T10:20:31.583Z,11.80
2019-04-28T10:23:01.043Z,11.60
2019-04-28T10:25:30.437Z,11.30
2019-04-28T10:27:59.826Z,11.50
2019-04-28T10:30:29.270Z,11.80
2019-04-28T10:32:58.722Z,12.10
2019-04-28T10:35:28.170Z,12.20
2019-04-28T10:37:57.574Z,12.10
2019-04-28T10:40:40.671Z,12.10
2019-04-28T10:43:10.235Z,11.90
2019-04-28T10:45:41.312Z,11.90
2019-04-28T10:48:10.691Z,11.80
2019-04-28T10:50:40.144Z,11.90
2019-04-28T10:53:09.833Z,11.90
2019-04-28T10:55:39.304Z,11.80
2019-04-28T10:58:08.829Z,11.70
2019-04-28T11:00:39.844Z,11.90
2019-04-28T11:03:09.306Z,12.00
2019-04-28T11:05:42.850Z,12.10
2019-04-28T11:08:32.380Z,12.10
2019-04-28T11:11:03.499Z,12.10
2019-04-28T11:13:32.925Z,12.30
2019-04-28T11:16:02.385Z,12.50
2019-04-28T11:18:31.786Z,12.40
2019-04-28T11:21:01.256Z,12.40
2019-04-28T11:23:30.693Z,12.30
2019-04-28T11:26:00.083Z,12.20
2019-04-28T11:28:29.487Z,11.90
2019-04-28T11:30:58.888Z,11.70
2019-04-28T11:33:46.079Z,11.50
2019-04-28T11:36:17.259Z,11.80
2019-04-28T11:38:46.656Z,11.80
2019-04-28T11:41:16.050Z,12.00
2019-04-28T11:43:45.530Z,12.00
2019-04-28T11:46:16.610Z,12.00
2019-04-28T11:48:46.065Z,12.10
2019-04-28T11:51:15.482Z,12.40
2019-04-28T11:53:44.917Z,12.50
2019-04-28T11:56:14.335Z,12.50
2019-04-28T11:58:46.274Z,12.40
2019-04-28T12:01:16.464Z,12.60
2019-04-28T12:03:46.124Z,12.80
2019-04-28T12:06:15.533Z,13.00
2019-04-28T12:08:45.185Z,12.90
2019-04-28T12:11:16.228Z,12.90
2019-04-28T12:13:56.185Z,12.80
2019-04-28T12:16:38.775Z,12.60
2019-04-28T12:19:12.490Z,12.20
2019-04-28T12:21:41.975Z,12.00
2019-04-28T12:24:11.379Z,12.10
2019-04-28T12:26:40.898Z,12.30
2019-04-28T12:29:10.291Z,12.40
2019-04-28T12:31:39.698Z,12.50
2019-04-28T12:34:09.092Z,12.50
2019-04-28T12:36:38.477Z,12.40
2019-04-28T12:39:09.478Z,12.20
2019-04-28T12:41:38.861Z,12.00
2019-04-28T12:44:08.233Z,12.00
2019-04-28T12:46:37.606Z,12.00
2019-04-28T12:49:08.737Z,12.00
2019-04-28T12:51:38.124Z,11.80
2019-04-28T12:54:09.254Z,11.50
2019-04-28T12:56:38.639Z,11.30
2019-04-28T12:59:09.738Z,11.10
2019-04-28T13:01:49.444Z,11.00
2019-04-28T13:04:20.464Z,10.80
2019-04-28T13:07:03.501Z,10.70
2019-04-28T13:09:33.167Z,10.60
2019-04-28T13:12:02.639Z,10.60
2019-04-28T13:14:32.019Z,10.70
2019-04-28T13:17:01.551Z,10.60
2019-04-28T13:19:30.929Z,10.70
2019-04-28T13:22:00.316Z,10.70
2019-04-28T13:24:29.780Z,10.80
2019-04-28T13:26:59.175Z,10.80
2019-04-28T13:29:28.546Z,10.80
2019-04-28T13:31:57.941Z,10.80
2019-04-28T13:34:28.961Z,10.70
2019-04-28T13:36:58.450Z,10.60
2019-04-28T13:39:35.153Z,10.60
2019-04-28T13:42:05.452Z,10.60
2019-04-28T13:44:51.501Z,10.60
2019-04-28T13:47:21.838Z,10.70
2019-04-28T13:50:05.333Z,10.80
2019-04-28T13:52:34.821Z,10.90
2019-04-28T13:55:23.332Z,10.90
2019-04-28T13:57:53.542Z,10.90
2019-04-28T14:00:40.887Z,11.00
2019-04-28T14:03:20.837Z,11.00
2019-04-28T14:06:06.650Z,11.00
2019-04-28T14:08:36.106Z,11.00
2019-04-28T14:11:05.862Z,11.10
2019-04-28T14:13:35.430Z,11.10
2019-04-28T14:16:05.165Z,11.20
2019-04-28T14:18:34.666Z,11.30
2019-04-28T14:21:04.141Z,11.40
2019-04-28T14:23:33.605Z,11.40
2019-04-28T14:26:03.052Z,11.50
2019-04-28T14:28:32.516Z,11.50
2019-04-28T14:31:01.962Z,11.60
2019-04-28T14:33:31.380Z,11.70
2019-04-28T14:36:00.913Z,11.70
2019-04-28T14:38:30.459Z,11.80
2019-04-28T14:40:59.902Z,11.80
2019-04-28T14:43:29.421Z,11.90
2019-04-28T14:45:58.903Z,11.90
2019-04-28T14:48:28.341Z,12.10
2019-04-28T14:50:57.743Z,12.00
2019-04-28T14:53:27.140Z,12.00
2019-04-28T14:55:56.530Z,12.10
2019-04-28T14:58:26.128Z,12.10
2019-04-28T15:01:09.353Z,12.20
2019-04-28T15:03:46.164Z,12.30
2019-04-28T15:06:25.780Z,12.40
2019-04-28T15:08:56.827Z,12.40
2019-04-28T15:11:33.929Z,12.50
2019-04-28T15:14:03.451Z,12.60
2019-04-28T15:16:32.777Z,12.70
2019-04-28T15:19:02.216Z,12.70
2019-04-28T15:21:31.724Z,12.60
2019-04-28T15:24:01.167Z,12.70
2019-04-28T15:26:30.647Z,12.70
2019-04-28T15:29:00.064Z,12.60
2019-04-28T15:31:29.541Z,12.40
2019-04-28T15:33:58.980Z,12.30
2019-04-28T15:36:28.445Z,12.40
2019-04-28T15:38:57.971Z,12.50
2019-04-28T15:41:27.457Z,12.60
2019-04-28T15:43:56.993Z,12.80
2019-04-28T15:46:26.529Z,12.90
2019-04-28T15:48:56.062Z,13.00
2019-04-28T15:51:25.541Z,12.80
2019-04-28T15:53:54.960Z,12.70
2019-04-28T15:56:29.207Z,12.50
2019-04-28T15:58:58.640Z,12.30
2019-04-28T16:01:28.141Z,12.20
2019-04-28T16:03:57.575Z,12.10
2019-04-28T16:06:27.054Z,12.20
2019-04-28T16:08:56.558Z,12.30
2019-04-28T16:11:28.850Z,12.40
2019-04-28T16:13:57.116Z,12.40
2019-04-28T16:16:26.619Z,12.40
2019-04-28T16:18:56.096Z,12.60
2019-04-28T16:21:25.518Z,12.80
2019-04-28T16:23:54.967Z,12.90
2019-04-28T16:26:24.381Z,12.90
2019-04-28T16:28:53.818Z,12.90
2019-04-28T16:31:23.367Z,12.70
2019-04-28T16:33:53.858Z,12.70
2019-04-28T16:36:23.319Z,12.70
2019-04-28T16:38:52.947Z,12.70
2019-04-28T16:41:22.969Z,12.80
2019-04-28T16:43:52.950Z,12.80
2019-04-28T16:46:22.341Z,12.80
2019-04-28T16:48:51.782Z,12.80
2019-04-28T16:51:21.269Z,12.70
2019-04-28T16:53:51.500Z,12.50
2019-04-28T16:56:39.113Z,12.50
2019-04-28T16:59:16.255Z,12.50
2019-04-28T17:01:47.393Z,12.50
2019-04-28T17:04:16.974Z,12.50
2019-04-28T17:06:46.349Z,12.60
2019-04-28T17:09:16.459Z,12.60
2019-04-28T17:11:45.909Z,12.70
2019-04-28T17:14:15.574Z,12.70
2019-04-28T17:16:45.046Z,12.60
2019-04-28T17:19:14.514Z,12.50
2019-04-28T17:21:43.994Z,12.30
2019-04-28T17:24:13.451Z,12.10
2019-04-28T17:26:42.961Z,12.00
2019-04-28T17:29:12.513Z,11.90
2019-04-28T17:31:42.036Z,11.80
2019-04-28T17:34:11.586Z,11.80
2019-04-28T17:36:41.093Z,11.80
2019-04-28T17:39:12.769Z,11.70
2019-04-28T17:41:42.328Z,11.60
2019-04-28T17:44:12.277Z,11.50
2019-04-28T17:46:42.014Z,11.50
2019-04-28T17:49:11.557Z,11.30
2019-04-28T17:51:41.202Z,11.30
2019-04-28T17:54:10.778Z,11.10
2019-04-28T17:56:41.278Z,10.90
2019-04-28T17:59:10.659Z,10.80
2019-04-28T18:01:44.425Z,10.70
2019-04-28T18:04:33.485Z,10.60
2019-04-28T18:07:04.565Z,10.40
2019-04-28T18:09:33.957Z,10.30
2019-04-28T18:12:03.504Z,10.20
2019-04-28T18:14:33.351Z,10.20
2019-04-28T18:17:13.388Z,10.10
2019-04-28T18:19:42.794Z,10.10
2019-04-28T18:22:12.171Z,10.00
2019-04-28T18:24:41.552Z,9.90
2019-04-28T18:27:10.989Z,9.90
2019-04-28T18:29:40.379Z,9.90
2019-04-28T18:32:27.630Z,9.80
2019-04-28T18:35:04.707Z,9.80
2019-04-28T18:37:38.617Z,9.70
2019-04-28T18:40:22.516Z,9.40
2019-04-28T18:43:10.015Z,9.20
2019-04-28T18:45:39.561Z,9.10
2019-04-28T18:48:08.939Z,9.00
2019-04-28T18:50:38.496Z,9.00
2019-04-28T18:53:07.872Z,8.90
2019-04-28T18:55:37.291Z,8.70
2019-04-28T18:58:06.673Z,8.50
2019-04-28T19:00:37.938Z,8.30
2019-04-28T19:03:07.310Z,8.20
2019-04-28T19:05:38.496Z,8.10
2019-04-28T19:08:09.542Z,8.20
2019-04-28T19:10:40.625Z,8.10
2019-04-28T19:13:24.051Z,8.00
2019-04-28T19:16:00.780Z,7.90
2019-04-28T19:18:34.966Z,7.80
2019-04-28T19:21:05.119Z,7.80
2019-04-28T19:23:34.653Z,7.80
2019-04-28T19:26:04.191Z,7.80
2019-04-28T19:28:33.580Z,7.70
2019-04-28T19:31:03.081Z,7.70
2019-04-28T19:33:32.573Z,7.60
2019-04-28T19:36:05.250Z,7.60
2019-04-28T19:38:34.883Z,7.50
2019-04-28T19:41:04.468Z,7.50
2019-04-28T19:43:33.961Z,7.40
2019-04-28T19:46:05.045Z,7.40
2019-04-28T19:48:34.594Z,7.50
2019-04-28T19:51:03.991Z,7.40
2019-04-28T19:53:33.353Z,7.30
2019-04-28T19:56:06.966Z,7.30
2019-04-28T19:58:40.776Z,7.20
2019-04-28T20:01:26.791Z,7.10
2019-04-28T20:03:56.164Z,7.00
2019-04-28T20:06:25.693Z,6.90
2019-04-28T20:08:55.063Z,6.80
2019-04-28T20:11:24.425Z,6.70
2019-04-28T20:13:53.898Z,6.60
2019-04-28T20:16:23.283Z,6.50
2019-04-28T20:18:52.725Z,6.50
2019-04-28T20:21:22.129Z,6.40
2019-04-28T20:23:51.645Z,6.30
2019-04-28T20:26:21.038Z,6.20
2019-04-28T20:28:50.533Z,6.20
2019-04-28T20:31:19.924Z,6.10
2019-04-28T20:33:49.316Z,6.00
2019-04-28T20:36:23.159Z,6.00
2019-04-28T20:38:57.037Z,5.90
2019-04-28T20:41:28.145Z,5.90
2019-04-28T20:43:58.127Z,5.80
2019-04-28T20:46:27.800Z,5.70
2019-04-28T20:48:57.250Z,5.60
2019-04-28T20:51:26.694Z,5.50
2019-04-28T20:53:56.064Z,5.40
2019-04-28T20:56:25.450Z,5.40
2019-04-28T20:58:54.807Z,5.50
2019-04-28T21:01:24.167Z,5.40
2019-04-28T21:03:53.567Z,5.40
2019-04-28T21:06:22.943Z,5.30
2019-04-28T21:08:52.334Z,5.30
2019-04-28T21:11:21.706Z,5.30
2019-04-28T21:13:51.082Z,5.20
2019-04-28T21:16:20.558Z,5.20
2019-04-28T21:18:49.918Z,5.10
2019-04-28T21:21:19.363Z,5.00
2019-04-28T21:23:48.733Z,5.00
2019-04-28T21:26:18.226Z,4.90
2019-04-28T21:28:47.623Z,4.90
2019-04-28T21:31:17.018Z,4.90
2019-04-28T21:33:47.933Z,4.90
2019-04-28T21:36:21.737Z,4.80
2019-04-28T21:38:51.102Z,4.80
2019-04-28T21:41:20.483Z,4.70
2019-04-28T21:43:54.483Z,4.70
2019-04-28T21:46:31.588Z,4.60
2019-04-28T21:49:02.599Z,4.50
2019-04-28T21:51:31.959Z,4.40
2019-04-28T21:54:01.335Z,4.40
2019-04-28T21:56:30.719Z,4.30
2019-04-28T21:59:00.059Z,4.20
2019-04-28T22:01:29.578Z,4.10
2019-04-28T22:03:58.933Z,4.10
2019-04-28T22:06:28.314Z,4.00
2019-04-28T22:08:57.672Z,4.00
2019-04-28T22:11:27.064Z,4.00
2019-04-28T22:13:56.502Z,4.00
2019-04-28T22:16:25.883Z,4.00
2019-04-28T22:18:55.237Z,4.00
2019-04-28T22:21:24.610Z,3.90
2019-04-28T22:23:55.644Z,3.90
2019-04-28T22:26:44.952Z,3.80
2019-04-28T22:29:14.984Z,3.80
2019-04-28T22:31:45.038Z,3.80
2019-04-28T22:34:15.936Z,3.70
2019-04-28T22:36:46.801Z,3.70
2019-04-28T22:39:16.534Z,3.60
2019-04-28T22:41:46.064Z,3.60
2019-04-28T22:44:15.427Z,3.60
2019-04-28T22:46:44.809Z,3.60
2019-04-28T22:49:14.164Z,3.60
2019-04-28T22:51:43.650Z,3.50
2019-04-28T22:54:30.785Z,3.50
2019-04-28T22:57:04.326Z,3.40
2019-04-28T22:59:35.342Z,3.30
2019-04-28T23:02:06.565Z,3.30
2019-04-28T23:04:37.579Z,3.30
2019-04-28T23:07:07.013Z,3.20
2019-04-28T23:09:36.389Z,3.20
2019-04-28T23:12:06.673Z,3.10
2019-04-28T23:14:36.057Z,3.00
2019-04-28T23:17:07.260Z,3.00
2019-04-28T23:19:38.364Z,2.90
2019-04-28T23:22:12.657Z,2.90
2019-04-28T23:24:42.032Z,2.90
2019-04-28T23:27:11.403Z,2.90
2019-04-28T23:29:40.861Z,2.80
2019-04-28T23:32:10.373Z,2.80
2019-04-28T23:34:39.749Z,2.80
2019-04-28T23:37:09.165Z,2.80
2019-04-28T23:39:38.541Z,2.70
2019-04-28T23:42:15.559Z,2.70
2019-04-28T23:44:44.995Z,2.60
2019-04-28T23:47:14.351Z,2.50
2019-04-28T23:49:43.802Z,2.50
2019-04-28T23:52:23.642Z,2.50
2019-04-28T23:54:54.663Z,2.40
2019-04-28T23:57:24.026Z,2.30
2019-04-28T23:59:53.385Z,2.30
